createdAt,value
2023-03-17T00:00:04.000Z,62.38
2023-03-17T00:01:04.000Z,62.38
2023-03-17T00:02:04.000Z,62.69
2023-03-17T00:03:04.000Z,62.40
2023-03-17T00:04:05.000Z,62.63
2023-03-17T00:05:18.000Z,62.70
2023-03-17T00:06:05.000Z,62.86
2023-03-17T00:07:04.000Z,62.56
2023-03-17T00:08:11.000Z,62.63
2023-03-17T00:09:09.000Z,62.59
2023-03-17T00:10:12.000Z,62.84
2023-03-17T00:11:09.000Z,62.70
2023-03-17T00:12:09.000Z,62.87
2023-03-17T00:13:05.000Z,62.70
2023-03-17T00:14:03.000Z,62.69
2023-03-17T00:15:05.000Z,62.64
2023-03-17T00:16:10.000Z,62.53
2023-03-17T00:17:04.000Z,62.59
2023-03-17T00:18:09.000Z,62.61
2023-03-17T00:19:04.000Z,62.58
2023-03-17T00:20:05.000Z,62.49
2023-03-17T00:21:04.000Z,62.77
2023-03-17T00:22:13.000Z,62.69
2023-03-17T00:23:04.000Z,62.72
2023-03-17T00:24:05.000Z,62.73
2023-03-17T00:25:17.000Z,62.76
2023-03-17T00:26:04.000Z,62.52
2023-03-17T00:27:10.000Z,62.56
2023-03-17T00:28:14.000Z,62.68
2023-03-17T00:29:04.000Z,62.63
2023-03-17T00:30:05.000Z,62.65
2023-03-17T00:31:15.000Z,62.76
2023-03-17T00:32:04.000Z,62.96
2023-03-17T00:33:03.000Z,62.80
2023-03-17T00:34:04.000Z,62.84
2023-03-17T00:35:14.000Z,62.65
2023-03-17T00:36:11.000Z,62.66
2023-03-17T00:37:03.000Z,62.87
2023-03-17T00:38:05.000Z,62.44
2023-03-17T00:39:12.000Z,62.66
2023-03-17T00:40:08.000Z,62.61
2023-03-17T00:41:03.000Z,62.66
2023-03-17T00:42:05.000Z,62.62
2023-03-17T00:43:03.000Z,62.76
2023-03-17T00:44:03.000Z,62.77
2023-03-17T00:45:04.000Z,62.81
2023-03-17T00:46:15.000Z,62.88
2023-03-17T00:47:03.000Z,63.01
2023-03-17T00:48:12.000Z,62.83
2023-03-17T00:49:11.000Z,62.90
2023-03-17T00:50:05.000Z,62.75
2023-03-17T00:51:04.000Z,62.79
2023-03-17T00:52:04.000Z,62.83
2023-03-17T00:53:08.000Z,62.90
2023-03-17T00:54:03.000Z,62.86
2023-03-17T00:55:05.000Z,62.69
2023-03-17T00:56:11.000Z,62.64
2023-03-17T00:57:03.000Z,62.80
2023-03-17T00:58:11.000Z,62.92
2023-03-17T00:59:11.000Z,62.81
2023-03-17T01:00:05.000Z,62.74
2023-03-17T01:01:03.000Z,62.71
2023-03-17T01:02:03.000Z,62.81
2023-03-17T01:03:03.000Z,62.52
2023-03-17T01:04:03.000Z,62.52
2023-03-17T01:05:05.000Z,62.50
2023-03-17T01:06:05.000Z,62.21
2023-03-17T01:07:03.000Z,62.31
2023-03-17T01:08:03.000Z,62.44
2023-03-17T01:09:03.000Z,62.46
2023-03-17T01:10:13.000Z,62.31
2023-03-17T01:11:03.000Z,62.46
2023-03-17T01:12:03.000Z,62.41
2023-03-17T01:13:04.000Z,62.32
2023-03-17T01:14:03.000Z,62.50
2023-03-17T01:15:04.000Z,62.47
2023-03-17T01:16:06.000Z,62.27
2023-03-17T01:17:12.000Z,62.34
2023-03-17T01:18:03.000Z,62.48
2023-03-17T01:19:03.000Z,62.25
2023-03-17T01:20:08.000Z,62.36
2023-03-17T01:21:03.000Z,62.34
2023-03-17T01:22:03.000Z,62.55
2023-03-17T01:23:03.000Z,62.48
2023-03-17T01:24:04.000Z,62.52
2023-03-17T01:25:04.000Z,62.49
2023-03-17T01:26:03.000Z,62.52
2023-03-17T01:27:03.000Z,62.65
2023-03-17T01:28:04.000Z,62.56
2023-03-17T01:29:03.000Z,62.53
2023-03-17T01:30:05.000Z,62.57
2023-03-17T01:31:04.000Z,62.61
2023-03-17T01:32:04.000Z,62.47
2023-03-17T01:33:06.000Z,62.52
2023-03-17T01:34:05.000Z,62.46
2023-03-17T01:35:04.000Z,62.40
2023-03-17T01:36:04.000Z,62.75
2023-03-17T01:37:04.000Z,62.56
2023-03-17T01:38:04.000Z,62.37
2023-03-17T01:39:04.000Z,62.44
2023-03-17T01:40:06.000Z,62.45
2023-03-17T01:41:04.000Z,62.53
2023-03-17T01:42:05.000Z,62.60
2023-03-17T01:43:26.000Z,62.34
2023-03-17T01:44:03.000Z,62.52
2023-03-17T01:45:21.000Z,62.53
2023-03-17T01:46:13.000Z,62.51
2023-03-17T01:47:03.000Z,62.30
2023-03-17T01:48:04.000Z,62.48
2023-03-17T01:49:22.000Z,62.57
2023-03-17T01:50:08.000Z,62.57
2023-03-17T01:51:08.000Z,62.49
2023-03-17T01:52:14.000Z,62.53
2023-03-17T01:53:05.000Z,62.44
2023-03-17T01:54:08.000Z,62.31
2023-03-17T01:55:07.000Z,62.43
2023-03-17T01:56:04.000Z,62.31
2023-03-17T01:57:15.000Z,62.46
2023-03-17T01:58:05.000Z,62.43
2023-03-17T01:59:08.000Z,62.38
2023-03-17T02:00:14.000Z,62.57
2023-03-17T02:01:05.000Z,62.32
2023-03-17T02:02:08.000Z,62.48
2023-03-17T02:03:04.000Z,62.38
2023-03-17T02:04:04.000Z,62.39
2023-03-17T02:05:06.000Z,62.35
2023-03-17T02:06:04.000Z,62.57
2023-03-17T02:07:04.000Z,62.46
2023-03-17T02:08:12.000Z,62.57
2023-03-17T02:09:03.000Z,62.59
2023-03-17T02:10:05.000Z,62.61
2023-03-17T02:11:04.000Z,62.55
2023-03-17T02:12:06.000Z,62.61
2023-03-17T02:13:06.000Z,62.61
2023-03-17T02:14:03.000Z,62.73
2023-03-17T02:15:05.000Z,62.59
2023-03-17T02:16:05.000Z,62.41
2023-03-17T02:17:04.000Z,62.66
2023-03-17T02:18:03.000Z,62.72
2023-03-17T02:19:03.000Z,62.76
2023-03-17T02:20:26.000Z,62.61
2023-03-17T02:21:13.000Z,62.86
2023-03-17T02:22:03.000Z,62.92
2023-03-17T02:23:04.000Z,62.80
2023-03-17T02:24:10.000Z,62.81
2023-03-17T02:25:04.000Z,62.94
2023-03-17T02:26:04.000Z,62.75
2023-03-17T02:27:14.000Z,62.69
2023-03-17T02:28:08.000Z,62.80
2023-03-17T02:29:04.000Z,62.83
2023-03-17T02:30:06.000Z,62.88
2023-03-17T02:31:03.000Z,62.81
2023-03-17T02:32:04.000Z,62.92
2023-03-17T02:33:03.000Z,63.12
2023-03-17T02:34:03.000Z,63.03
2023-03-17T02:35:05.000Z,62.91
2023-03-17T02:36:03.000Z,62.97
2023-03-17T02:37:05.000Z,63.06
2023-03-17T02:38:03.000Z,63.08
2023-03-17T02:39:03.000Z,62.97
2023-03-17T02:40:05.000Z,63.10
2023-03-17T02:41:04.000Z,63.23
2023-03-17T02:42:04.000Z,63.29
2023-03-17T02:43:04.000Z,63.20
2023-03-17T02:44:03.000Z,63.29
2023-03-17T02:45:08.000Z,63.36
2023-03-17T02:46:04.000Z,63.29
2023-03-17T02:47:03.000Z,63.21
2023-03-17T02:48:04.000Z,63.06
2023-03-17T02:49:04.000Z,63.20
2023-03-17T02:50:05.000Z,63.32
2023-03-17T02:51:03.000Z,63.22
2023-03-17T02:52:03.000Z,63.17
2023-03-17T02:53:03.000Z,63.37
2023-03-17T02:54:03.000Z,63.46
2023-03-17T02:55:04.000Z,63.42
2023-03-17T02:56:03.000Z,63.37
2023-03-17T02:57:03.000Z,63.59
2023-03-17T02:58:03.000Z,63.62
2023-03-17T02:59:03.000Z,63.67
2023-03-17T03:00:04.000Z,63.63
2023-03-17T03:01:03.000Z,63.70
2023-03-17T03:02:03.000Z,63.75
2023-03-17T03:03:03.000Z,63.68
2023-03-17T03:04:04.000Z,63.68
2023-03-17T03:05:05.000Z,63.70
2023-03-17T03:06:04.000Z,63.75
2023-03-17T03:07:04.000Z,63.66
2023-03-17T03:08:04.000Z,63.43
2023-03-17T03:09:04.000Z,63.54
2023-03-17T03:10:05.000Z,63.53
2023-03-17T03:11:04.000Z,63.76
2023-03-17T03:12:04.000Z,63.91
2023-03-17T03:13:03.000Z,63.73
2023-03-17T03:14:04.000Z,63.78
2023-03-17T03:15:05.000Z,63.59
2023-03-17T03:16:04.000Z,63.71
2023-03-17T03:17:03.000Z,63.87
2023-03-17T03:18:03.000Z,63.71
2023-03-17T03:19:04.000Z,63.53
2023-03-17T03:20:04.000Z,63.62
2023-03-17T03:21:04.000Z,63.71
2023-03-17T03:22:04.000Z,63.83
2023-03-17T03:23:03.000Z,63.69
2023-03-17T03:24:04.000Z,63.62
2023-03-17T03:25:04.000Z,63.54
2023-03-17T03:26:04.000Z,63.73
2023-03-17T03:27:03.000Z,63.91
2023-03-17T03:28:05.000Z,63.68
2023-03-17T03:29:03.000Z,63.75
2023-03-17T03:30:09.000Z,63.64
2023-03-17T03:31:04.000Z,63.60
2023-03-17T03:32:04.000Z,63.74
2023-03-17T03:33:04.000Z,63.75
2023-03-17T03:34:03.000Z,63.71
2023-03-17T03:35:04.000Z,63.68
2023-03-17T03:36:04.000Z,63.91
2023-03-17T03:37:04.000Z,63.92
2023-03-17T03:38:03.000Z,63.99
2023-03-17T03:39:03.000Z,63.81
2023-03-17T03:40:04.000Z,63.89
2023-03-17T03:41:03.000Z,63.84
2023-03-17T03:42:03.000Z,64.03
2023-03-17T03:43:04.000Z,64.01
2023-03-17T03:44:03.000Z,63.97
2023-03-17T03:45:04.000Z,64.09
2023-03-17T03:46:04.000Z,63.92
2023-03-17T03:47:03.000Z,63.89
2023-03-17T03:48:04.000Z,63.90
2023-03-17T03:49:03.000Z,64.21
2023-03-17T03:50:04.000Z,64.31
2023-03-17T03:51:03.000Z,64.19
2023-03-17T03:52:04.000Z,64.24
2023-03-17T03:53:03.000Z,64.26
2023-03-17T03:54:03.000Z,64.00
2023-03-17T03:55:04.000Z,64.13
2023-03-17T03:56:04.000Z,64.16
2023-03-17T03:57:04.000Z,64.42
2023-03-17T03:58:03.000Z,64.32
2023-03-17T03:59:03.000Z,64.23
2023-03-17T04:00:05.000Z,64.34
2023-03-17T04:01:07.000Z,64.46
2023-03-17T04:02:03.000Z,64.41
2023-03-17T04:03:02.000Z,64.56
2023-03-17T04:04:02.000Z,64.46
2023-03-17T04:05:04.000Z,64.48
2023-03-17T04:06:03.000Z,64.40
2023-03-17T04:07:03.000Z,64.54
2023-03-17T04:08:03.000Z,64.51
2023-03-17T04:09:02.000Z,64.53
2023-03-17T04:10:03.000Z,64.44
2023-03-17T04:11:03.000Z,64.59
2023-03-17T04:12:03.000Z,64.44
2023-03-17T04:13:03.000Z,64.42
2023-03-17T04:14:04.000Z,64.52
2023-03-17T04:15:05.000Z,64.70
2023-03-17T04:16:03.000Z,64.77
2023-03-17T04:17:03.000Z,64.90
2023-03-17T04:18:03.000Z,64.65
2023-03-17T04:19:02.000Z,64.81
2023-03-17T04:20:03.000Z,64.70
2023-03-17T04:21:03.000Z,64.88
2023-03-17T04:22:04.000Z,64.82
2023-03-17T04:23:03.000Z,64.75
2023-03-17T04:24:06.000Z,64.88
2023-03-17T04:25:03.000Z,64.83
2023-03-17T04:26:03.000Z,65.03
2023-03-17T04:27:03.000Z,65.14
2023-03-17T04:28:03.000Z,65.13
2023-03-17T04:29:03.000Z,65.25
2023-03-17T04:30:04.000Z,64.98
2023-03-17T04:31:03.000Z,65.07
2023-03-17T04:32:03.000Z,65.18
2023-03-17T04:33:03.000Z,65.08
2023-03-17T04:34:03.000Z,65.16
2023-03-17T04:35:04.000Z,65.17
2023-03-17T04:36:04.000Z,65.19
2023-03-17T04:37:03.000Z,64.99
2023-03-17T04:38:03.000Z,64.83
2023-03-17T04:39:03.000Z,64.81
2023-03-17T04:40:05.000Z,64.78
2023-03-17T04:41:03.000Z,64.97
2023-03-17T04:42:04.000Z,64.91
2023-03-17T04:43:03.000Z,64.85
2023-03-17T04:44:04.000Z,64.96
2023-03-17T04:45:05.000Z,64.70
2023-03-17T04:46:03.000Z,64.77
2023-03-17T04:47:03.000Z,64.90
2023-03-17T04:48:04.000Z,64.91
2023-03-17T04:49:03.000Z,65.01
2023-03-17T04:50:04.000Z,64.86
2023-03-17T04:51:04.000Z,64.95
2023-03-17T04:52:03.000Z,64.87
2023-03-17T04:53:03.000Z,64.97
2023-03-17T04:54:04.000Z,64.58
2023-03-17T04:55:04.000Z,64.67
2023-03-17T04:56:04.000Z,64.72
2023-03-17T04:57:03.000Z,64.77
2023-03-17T04:58:03.000Z,64.68
2023-03-17T04:59:03.000Z,64.69
2023-03-17T05:00:05.000Z,64.69
2023-03-17T05:01:04.000Z,64.96
2023-03-17T05:02:03.000Z,64.54
2023-03-17T05:03:05.000Z,64.66
2023-03-17T05:04:03.000Z,64.56
2023-03-17T05:05:03.000Z,64.75
2023-03-17T05:06:04.000Z,64.81
2023-03-17T05:07:03.000Z,64.97
2023-03-17T05:08:03.000Z,64.76
2023-03-17T05:09:03.000Z,64.80
2023-03-17T05:10:04.000Z,64.94
2023-03-17T05:11:04.000Z,65.08
2023-03-17T05:12:04.000Z,64.86
2023-03-17T05:13:03.000Z,64.99
2023-03-17T05:14:03.000Z,64.92
2023-03-17T05:15:05.000Z,65.05
2023-03-17T05:16:03.000Z,64.99
2023-03-17T05:17:03.000Z,64.96
2023-03-17T05:18:03.000Z,65.15
2023-03-17T05:19:03.000Z,65.13
2023-03-17T05:20:04.000Z,65.13
2023-03-17T05:21:04.000Z,64.86
2023-03-17T05:22:03.000Z,64.81
2023-03-17T05:23:03.000Z,64.92
2023-03-17T05:24:04.000Z,65.07
2023-03-17T05:25:03.000Z,65.10
2023-03-17T05:26:03.000Z,65.10
2023-03-17T05:27:03.000Z,65.05
2023-03-17T05:28:03.000Z,65.14
2023-03-17T05:29:03.000Z,65.15
2023-03-17T05:30:04.000Z,65.11
2023-03-17T05:31:04.000Z,65.09
2023-03-17T05:32:03.000Z,65.15
2023-03-17T05:33:03.000Z,65.25
2023-03-17T05:34:04.000Z,65.20
2023-03-17T05:35:05.000Z,65.08
2023-03-17T05:36:03.000Z,65.04
2023-03-17T05:37:03.000Z,64.95
2023-03-17T05:38:03.000Z,65.10
2023-03-17T05:39:03.000Z,65.02
2023-03-17T05:40:03.000Z,64.89
2023-03-17T05:41:03.000Z,65.02
2023-03-17T05:42:03.000Z,65.15
2023-03-17T05:43:03.000Z,65.18
2023-03-17T05:44:03.000Z,65.17
2023-03-17T05:45:04.000Z,65.12
2023-03-17T05:46:04.000Z,65.19
2023-03-17T05:47:03.000Z,65.02
2023-03-17T05:48:04.000Z,64.97
2023-03-17T05:49:03.000Z,65.06
2023-03-17T05:50:03.000Z,65.22
2023-03-17T05:51:03.000Z,65.21
2023-03-17T05:52:03.000Z,65.24
2023-03-17T05:53:03.000Z,65.32
2023-03-17T05:54:03.000Z,65.47
2023-03-17T05:55:04.000Z,65.64
2023-03-17T05:56:03.000Z,65.59
2023-03-17T05:57:03.000Z,65.43
2023-03-17T05:58:04.000Z,65.20
2023-03-17T05:59:03.000Z,65.15
2023-03-17T06:00:04.000Z,65.13
2023-03-17T06:01:03.000Z,65.15
2023-03-17T06:02:03.000Z,65.22
2023-03-17T06:03:03.000Z,65.29
2023-03-17T06:04:03.000Z,65.32
2023-03-17T06:05:04.000Z,65.23
2023-03-17T06:06:03.000Z,65.24
2023-03-17T06:07:03.000Z,65.20
2023-03-17T06:08:04.000Z,65.20
2023-03-17T06:09:02.000Z,65.38
2023-03-17T06:10:04.000Z,65.34
2023-03-17T06:11:03.000Z,65.13
2023-03-17T06:12:03.000Z,65.24
2023-03-17T06:13:02.000Z,65.12
2023-03-17T06:14:02.000Z,65.12
2023-03-17T06:15:04.000Z,65.15
2023-03-17T06:16:03.000Z,65.08
2023-03-17T06:17:03.000Z,65.09
2023-03-17T06:18:03.000Z,65.05
2023-03-17T06:19:02.000Z,65.36
2023-03-17T06:20:03.000Z,65.32
2023-03-17T06:21:03.000Z,65.30
2023-03-17T06:22:02.000Z,65.22
2023-03-17T06:23:02.000Z,65.31
2023-03-17T06:24:03.000Z,65.30
2023-03-17T06:25:03.000Z,65.43
2023-03-17T06:26:03.000Z,65.27
2023-03-17T06:27:03.000Z,65.24
2023-03-17T06:28:03.000Z,64.99
2023-03-17T06:29:04.000Z,64.91
2023-03-17T06:30:04.000Z,64.90
2023-03-17T06:31:03.000Z,65.07
2023-03-17T06:32:03.000Z,65.01
2023-03-17T06:33:02.000Z,65.07
2023-03-17T06:34:03.000Z,64.89
2023-03-17T06:35:04.000Z,65.09
2023-03-17T06:36:03.000Z,64.97
2023-03-17T06:37:03.000Z,65.17
2023-03-17T06:38:03.000Z,65.06
2023-03-17T06:39:03.000Z,65.05
2023-03-17T06:40:05.000Z,65.00
2023-03-17T06:41:03.000Z,65.54
2023-03-17T06:42:03.000Z,65.51
2023-03-17T06:43:03.000Z,64.99
2023-03-17T06:44:04.000Z,64.93
2023-03-17T06:45:03.000Z,64.65
2023-03-17T06:46:03.000Z,64.39
2023-03-17T06:47:03.000Z,64.50
2023-03-17T06:48:03.000Z,64.61
2023-03-17T06:49:03.000Z,64.57
2023-03-17T06:50:08.000Z,64.64
2023-03-17T06:51:03.000Z,64.73
2023-03-17T06:52:03.000Z,64.42
2023-03-17T06:53:03.000Z,64.50
2023-03-17T06:54:03.000Z,64.41
2023-03-17T06:55:04.000Z,64.45
2023-03-17T06:56:04.000Z,64.47
2023-03-17T06:57:03.000Z,64.37
2023-03-17T06:58:03.000Z,64.51
2023-03-17T06:59:03.000Z,64.43
2023-03-17T07:00:06.000Z,64.36
2023-03-17T07:01:04.000Z,64.38
2023-03-17T07:02:04.000Z,64.34
2023-03-17T07:03:04.000Z,64.53
2023-03-17T07:04:04.000Z,64.36
2023-03-17T07:05:03.000Z,64.40
2023-03-17T07:06:03.000Z,64.36
2023-03-17T07:07:04.000Z,63.99
2023-03-17T07:08:03.000Z,64.06
2023-03-17T07:09:04.000Z,64.13
2023-03-17T07:10:05.000Z,64.19
2023-03-17T07:11:03.000Z,64.24
2023-03-17T07:12:03.000Z,63.98
2023-03-17T07:13:05.000Z,63.99
2023-03-17T07:14:03.000Z,64.09
2023-03-17T07:15:03.000Z,64.03
2023-03-17T07:16:03.000Z,63.88
2023-03-17T07:17:03.000Z,63.52
2023-03-17T07:18:03.000Z,63.65
2023-03-17T07:19:03.000Z,63.80
2023-03-17T07:20:03.000Z,63.53
2023-03-17T07:21:03.000Z,63.68
2023-03-17T07:22:02.000Z,63.56
2023-03-17T07:23:02.000Z,63.43
2023-03-17T07:24:03.000Z,63.31
2023-03-17T07:25:03.000Z,62.92
2023-03-17T07:26:03.000Z,63.13
2023-03-17T07:27:03.000Z,62.96
2023-03-17T07:28:03.000Z,63.21
2023-03-17T07:29:02.000Z,62.75
2023-03-17T07:30:04.000Z,62.67
2023-03-17T07:31:06.000Z,62.42
2023-03-17T07:32:05.000Z,62.77
2023-03-17T07:33:02.000Z,62.85
2023-03-17T07:34:03.000Z,62.89
2023-03-17T07:35:03.000Z,62.81
2023-03-17T07:36:06.000Z,63.11
2023-03-17T07:37:03.000Z,62.47
2023-03-17T07:38:03.000Z,62.57
2023-03-17T07:39:02.000Z,62.64
2023-03-17T07:40:03.000Z,62.55
2023-03-17T07:41:03.000Z,62.34
2023-03-17T07:42:03.000Z,62.50
2023-03-17T07:43:03.000Z,62.75
2023-03-17T07:44:02.000Z,62.71
2023-03-17T07:45:05.000Z,62.67
2023-03-17T07:46:03.000Z,62.78
2023-03-17T07:47:02.000Z,62.42
2023-03-17T07:48:04.000Z,62.67
2023-03-17T07:49:03.000Z,62.78
2023-03-17T07:50:03.000Z,62.64
2023-03-17T07:51:03.000Z,62.46
2023-03-17T07:52:03.000Z,62.72
2023-03-17T07:53:02.000Z,62.84
2023-03-17T07:54:03.000Z,62.63
2023-03-17T07:55:03.000Z,62.67
2023-03-17T07:56:03.000Z,63.08
2023-03-17T07:57:03.000Z,63.07
2023-03-17T07:58:03.000Z,62.92
2023-03-17T07:59:03.000Z,62.73
2023-03-17T08:00:04.000Z,62.95
2023-03-17T08:01:03.000Z,63.01
2023-03-17T08:02:02.000Z,62.81
2023-03-17T08:03:02.000Z,62.50
2023-03-17T08:04:03.000Z,62.61
2023-03-17T08:05:03.000Z,62.60
2023-03-17T08:06:04.000Z,62.58
2023-03-17T08:07:04.000Z,62.72
2023-03-17T08:08:05.000Z,62.56
2023-03-17T08:09:03.000Z,62.13
2023-03-17T08:10:05.000Z,62.24
2023-03-17T08:11:03.000Z,62.51
2023-03-17T08:12:04.000Z,62.27
2023-03-17T08:13:03.000Z,62.62
2023-03-17T08:14:04.000Z,62.77
2023-03-17T08:15:04.000Z,62.92
2023-03-17T08:16:03.000Z,62.90
2023-03-17T08:17:03.000Z,62.58
2023-03-17T08:18:03.000Z,62.75
2023-03-17T08:19:03.000Z,62.72
2023-03-17T08:20:04.000Z,62.52
2023-03-17T08:21:03.000Z,62.58
2023-03-17T08:22:03.000Z,62.67
2023-03-17T08:23:03.000Z,62.83
2023-03-17T08:24:04.000Z,62.71
2023-03-17T08:25:03.000Z,62.50
2023-03-17T08:26:03.000Z,62.25
2023-03-17T08:27:03.000Z,62.36
2023-03-17T08:28:03.000Z,62.35
2023-03-17T08:29:04.000Z,62.33
2023-03-17T08:30:04.000Z,62.41
2023-03-17T08:31:07.000Z,62.12
2023-03-17T08:32:03.000Z,62.17
2023-03-17T08:33:03.000Z,62.15
2023-03-17T08:34:03.000Z,62.22
2023-03-17T08:35:05.000Z,62.39
2023-03-17T08:36:05.000Z,62.40
2023-03-17T08:37:03.000Z,62.51
2023-03-17T08:38:03.000Z,62.59
2023-03-17T08:39:03.000Z,62.64
2023-03-17T08:40:04.000Z,62.39
2023-03-17T08:41:06.000Z,61.94
2023-03-17T08:42:04.000Z,62.03
2023-03-17T08:43:03.000Z,62.21
2023-03-17T08:44:02.000Z,62.29
2023-03-17T08:45:04.000Z,62.41
2023-03-17T08:46:07.000Z,62.55
2023-03-17T08:47:03.000Z,62.48
2023-03-17T08:48:03.000Z,62.67
2023-03-17T08:49:02.000Z,62.65
2023-03-17T08:50:07.000Z,62.75
2023-03-17T08:51:03.000Z,62.90
2023-03-17T08:52:03.000Z,61.93
2023-03-17T08:53:02.000Z,61.84
2023-03-17T08:54:03.000Z,62.05
2023-03-17T08:55:03.000Z,61.64
2023-03-17T08:56:04.000Z,62.02
2023-03-17T08:57:03.000Z,61.48
2023-03-17T08:58:03.000Z,61.42
2023-03-17T08:59:05.000Z,61.40
2023-03-17T09:00:11.000Z,61.60
2023-03-17T09:01:03.000Z,61.09
2023-03-17T09:02:03.000Z,60.28
2023-03-17T09:03:04.000Z,59.95
2023-03-17T09:04:02.000Z,60.29
2023-03-17T09:05:05.000Z,60.10
2023-03-17T09:06:07.000Z,60.42
2023-03-17T09:07:05.000Z,60.24
2023-03-17T09:08:03.000Z,59.47
2023-03-17T09:09:02.000Z,59.52
2023-03-17T09:10:04.000Z,59.98
2023-03-17T09:11:05.000Z,59.70
2023-03-17T09:12:05.000Z,59.44
2023-03-17T09:13:03.000Z,58.45
2023-03-17T09:14:03.000Z,58.58
2023-03-17T09:15:04.000Z,58.49
2023-03-17T09:16:04.000Z,58.52
2023-03-17T09:17:02.000Z,58.75
2023-03-17T09:18:03.000Z,59.55
2023-03-17T09:19:02.000Z,58.92
2023-03-17T09:20:05.000Z,58.97
2023-03-17T09:21:04.000Z,58.94
2023-03-17T09:22:03.000Z,59.50
2023-03-17T09:23:08.000Z,58.68
2023-03-17T09:24:03.000Z,58.86
2023-03-17T09:25:03.000Z,58.65
2023-03-17T09:26:03.000Z,58.24
2023-03-17T09:27:03.000Z,58.18
2023-03-17T09:28:03.000Z,58.57
2023-03-17T09:29:03.000Z,57.92
2023-03-17T09:30:03.000Z,58.63
2023-03-17T09:31:05.000Z,58.18
2023-03-17T09:32:03.000Z,58.07
2023-03-17T09:33:03.000Z,58.08
2023-03-17T09:34:04.000Z,57.80
2023-03-17T09:35:04.000Z,57.10
2023-03-17T09:36:03.000Z,57.71
2023-03-17T09:37:02.000Z,57.41
2023-03-17T09:38:02.000Z,57.24
2023-03-17T09:39:03.000Z,57.47
2023-03-17T09:40:13.000Z,57.21
2023-03-17T09:41:12.000Z,57.00
2023-03-17T09:42:23.000Z,56.99
2023-03-17T09:43:19.000Z,56.67
2023-03-17T09:44:22.000Z,56.97
2023-03-17T09:45:14.000Z,57.02
2023-03-17T09:46:21.000Z,57.24
2023-03-17T09:47:23.000Z,57.16
2023-03-17T09:48:25.000Z,57.23
2023-03-17T09:49:09.000Z,57.45
2023-03-17T09:50:11.000Z,57.83
2023-03-17T09:51:07.000Z,58.02
2023-03-17T09:52:03.000Z,57.75
2023-03-17T09:53:11.000Z,57.62
2023-03-17T09:54:09.000Z,57.75
2023-03-17T09:55:05.000Z,57.64
2023-03-17T09:56:10.000Z,57.83
2023-03-17T09:57:12.000Z,57.54
2023-03-17T09:58:02.000Z,57.45
2023-03-17T09:59:26.000Z,57.69
2023-03-17T10:00:13.000Z,57.88
2023-03-17T10:01:09.000Z,57.97
2023-03-17T10:02:20.000Z,57.79
2023-03-17T10:03:08.000Z,57.52
2023-03-17T10:04:02.000Z,57.57
2023-03-17T10:05:16.000Z,57.42
2023-03-17T10:06:12.000Z,57.43
2023-03-17T10:07:04.000Z,56.77
2023-03-17T10:08:14.000Z,57.06
2023-03-17T10:09:15.000Z,56.77
2023-03-17T10:10:13.000Z,57.00
2023-03-17T10:11:13.000Z,57.30
2023-03-17T10:12:13.000Z,57.41
2023-03-17T10:13:20.000Z,56.56
2023-03-17T10:14:11.000Z,56.74
2023-03-17T10:15:10.000Z,56.76
2023-03-17T10:16:11.000Z,56.31
2023-03-17T10:17:16.000Z,56.51
2023-03-17T10:18:13.000Z,56.29
2023-03-17T10:19:20.000Z,56.33
2023-03-17T10:20:08.000Z,56.20
2023-03-17T10:21:06.000Z,55.60
2023-03-17T10:22:14.000Z,55.23
2023-03-17T10:23:09.000Z,55.20
2023-03-17T10:24:04.000Z,55.15
2023-03-17T10:25:12.000Z,55.22
2023-03-17T10:26:28.000Z,55.43
2023-03-17T10:27:05.000Z,54.58
2023-03-17T10:28:26.000Z,55.10
2023-03-17T10:29:09.000Z,55.41
2023-03-17T10:30:10.000Z,54.47
2023-03-17T10:31:14.000Z,54.29
2023-03-17T10:32:03.000Z,53.74
2023-03-17T10:33:06.000Z,52.90
2023-03-17T10:34:16.000Z,53.15
2023-03-17T10:35:04.000Z,52.76
2023-03-17T10:36:13.000Z,53.82
2023-03-17T10:37:14.000Z,53.43
2023-03-17T10:38:13.000Z,53.47
2023-03-17T10:39:09.000Z,54.21
2023-03-17T10:40:05.000Z,53.89
2023-03-17T10:41:11.000Z,53.46
2023-03-17T10:42:09.000Z,53.28
2023-03-17T10:43:16.000Z,52.69
2023-03-17T10:44:08.000Z,53.70
2023-03-17T10:45:12.000Z,54.18
2023-03-17T10:46:05.000Z,54.04
2023-03-17T10:47:03.000Z,52.71
2023-03-17T10:48:06.000Z,53.29
2023-03-17T10:49:14.000Z,52.81
2023-03-17T10:50:13.000Z,53.41
2023-03-17T10:51:08.000Z,52.09
2023-03-17T10:52:06.000Z,51.60
2023-03-17T10:53:18.000Z,51.88
2023-03-17T10:54:08.000Z,52.40
2023-03-17T10:55:05.000Z,52.80
2023-03-17T10:56:08.000Z,52.77
2023-03-17T10:57:06.000Z,53.10
2023-03-17T10:58:05.000Z,53.26
2023-03-17T10:59:05.000Z,53.19
2023-03-17T11:00:13.000Z,52.19
2023-03-17T11:01:18.000Z,52.93
2023-03-17T11:02:26.000Z,52.67
2023-03-17T11:03:12.000Z,51.87
2023-03-17T11:04:14.000Z,52.58
2023-03-17T11:05:06.000Z,52.15
2023-03-17T11:06:11.000Z,52.04
2023-03-17T11:07:13.000Z,52.08
2023-03-17T11:08:16.000Z,52.18
2023-03-17T11:09:08.000Z,51.04
2023-03-17T11:10:12.000Z,51.21
2023-03-17T11:11:05.000Z,50.95
2023-03-17T11:12:15.000Z,50.58
2023-03-17T11:13:03.000Z,49.76
2023-03-17T11:14:09.000Z,50.07
2023-03-17T11:15:06.000Z,50.45
2023-03-17T11:16:15.000Z,50.88
2023-03-17T11:17:15.000Z,51.06
2023-03-17T11:18:14.000Z,50.30
2023-03-17T11:19:08.000Z,50.03
2023-03-17T11:20:23.000Z,49.88
2023-03-17T11:21:09.000Z,50.50
2023-03-17T11:22:23.000Z,49.73
2023-03-17T11:23:13.000Z,49.37
2023-03-17T11:24:12.000Z,50.46
2023-03-17T11:25:11.000Z,49.70
2023-03-17T11:26:12.000Z,49.73
2023-03-17T11:27:25.000Z,49.50
2023-03-17T11:28:17.000Z,49.96
2023-03-17T11:29:19.000Z,48.93
2023-03-17T11:30:26.000Z,49.56
2023-03-17T11:31:16.000Z,49.15
2023-03-17T11:32:12.000Z,49.83
2023-03-17T11:33:16.000Z,50.06
2023-03-17T11:34:16.000Z,49.71
2023-03-17T11:35:12.000Z,49.59
2023-03-17T11:36:12.000Z,49.75
2023-03-17T11:37:15.000Z,49.51
2023-03-17T11:38:25.000Z,48.69
2023-03-17T11:39:10.000Z,48.92
2023-03-17T11:40:18.000Z,49.30
2023-03-17T11:41:13.000Z,49.69
2023-03-17T11:42:25.000Z,50.20
2023-03-17T11:43:24.000Z,49.84
2023-03-17T11:44:14.000Z,49.86
2023-03-17T11:45:13.000Z,48.77
2023-03-17T11:46:14.000Z,48.51
2023-03-17T11:47:19.000Z,48.16
2023-03-17T11:48:13.000Z,48.82
2023-03-17T11:49:13.000Z,49.04
2023-03-17T11:50:23.000Z,48.84
2023-03-17T11:51:23.000Z,48.59
2023-03-17T11:52:18.000Z,48.18
2023-03-17T11:53:23.000Z,48.68
2023-03-17T11:54:23.000Z,49.16
2023-03-17T11:55:19.000Z,49.13
2023-03-17T11:56:12.000Z,47.62
2023-03-17T11:57:08.000Z,48.00
2023-03-17T11:58:05.000Z,48.29
2023-03-17T11:59:26.000Z,48.41
2023-03-17T12:00:21.000Z,48.66
2023-03-17T12:01:13.000Z,49.17
2023-03-17T12:02:13.000Z,49.03
2023-03-17T12:03:27.000Z,48.39
2023-03-17T12:04:24.000Z,48.35
2023-03-17T12:05:09.000Z,48.83
2023-03-17T12:06:14.000Z,48.74
2023-03-17T12:07:16.000Z,49.26
2023-03-17T12:08:14.000Z,49.25
2023-03-17T12:09:13.000Z,49.02
2023-03-17T12:10:13.000Z,49.43
2023-03-17T12:11:07.000Z,49.14
2023-03-17T12:12:05.000Z,49.43
2023-03-17T12:13:27.000Z,49.06
2023-03-17T12:14:22.000Z,48.71
2023-03-17T12:15:12.000Z,49.08
2023-03-17T12:16:11.000Z,48.67
2023-03-17T12:17:13.000Z,48.67
2023-03-17T12:18:12.000Z,48.67
2023-03-17T12:19:39.000Z,48.57
2023-03-17T12:20:29.000Z,48.81
2023-03-17T12:21:14.000Z,48.52
2023-03-17T12:22:11.000Z,48.36
2023-03-17T12:23:16.000Z,48.99
2023-03-17T12:24:13.000Z,49.33
2023-03-17T12:25:14.000Z,49.16
2023-03-17T12:26:13.000Z,47.85
2023-03-17T12:27:27.000Z,48.63
2023-03-17T12:28:10.000Z,49.03
2023-03-17T12:29:12.000Z,48.33
2023-03-17T12:30:20.000Z,49.06
2023-03-17T12:31:06.000Z,48.89
2023-03-17T12:32:14.000Z,48.07
2023-03-17T12:33:26.000Z,48.18
2023-03-17T12:34:17.000Z,47.71
2023-03-17T12:35:25.000Z,48.01
2023-03-17T12:36:06.000Z,47.92
2023-03-17T12:37:03.000Z,47.91
2023-03-17T12:38:17.000Z,47.35
2023-03-17T12:39:14.000Z,47.83
2023-03-17T12:40:18.000Z,48.03
2023-03-17T12:41:13.000Z,48.34
2023-03-17T12:42:33.000Z,48.32
2023-03-17T12:43:18.000Z,48.72
2023-03-17T12:44:39.000Z,47.93
2023-03-17T12:45:32.000Z,47.92
2023-03-17T12:46:23.000Z,47.78
2023-03-17T12:47:26.000Z,47.97
2023-03-17T12:48:17.000Z,48.03
2023-03-17T12:49:25.000Z,48.15
2023-03-17T12:50:14.000Z,48.25
2023-03-17T12:51:15.000Z,47.93
2023-03-17T12:52:23.000Z,48.41